Brandon, Michigan
Current Conditions -  °F | °C
As of 2:53 AM on Tuesday 21 Oct 2014 (Local Time) from KPTK Reporting Station
Overcast Overcast  
Wind Chill: 43°   Ceiling: 2100
Heat Index: 47°   Visibility: 10mi
Dew Point: 43°   Wind: 8mph
Humidity: 86%   Direction: 310°NW
Pressure: 29.88"   Gusts: NA
Location:  42.8429°N, 83.4301°W
Report Text: KPTK 210653Z AUTO 31007KT 10SM BKN021 OVC026 08/06 A2988 RMK AO2 SLP121 T00830061
Loading
Personal Weather Stations






























Interactive Weather Map
Tropical Storm Tracking
New forecast layout! Learn more

10-Day Weather Forecast

Advertisements
Track Severe Weather on mobile